EGEC/CAL METAR and TAF weather

Enter ICAO airport designator
Station Type Date Time Source
EGEC METAR 2020/03/27 09:50 UTC NOAA

EGEC 270950Z 34008KT 9999 BKN012 08/07 Q1029


Station Type Date Time Source
EGEC Decoded METAR 2020/03/27 09:50 UTC NOAA

Campbeltown, United Kingdom (EGEC) 55-26-14N 005-41-11W
Mar 27, 2020 - 05:50 AM EDT / 2020.03.27 0950 UTC
Wind: from the NNW (340 degrees) at 9 MPH (8 KT):0
Visibility: greater than 7 mile(s):0
Sky conditions: mostly cloudy
Temperature: 46 F (8 C)
Dew Point: 44 F (7 C)
Relative Humidity: 93%
Pressure (altimeter): 30.39 in. Hg (1029 hPa)
ob: EGEC 270950Z 34008KT 9999 BKN012 08/07 Q1029
cycle: 10

Station Type Date Time Source
EGEC TAF UTC NOAA

Error!

Example: see airport list